Terminal Aerodrome Forecast
Issued by NWS

Home | Current Version | Previous Version | Text Only | Print | Product List | Glossary On
Versions: 1 2 3 4 5 6 7 8 9 10 11 12 13 14 15 16 17 18 19 20
000
FTUS45 KFGZ 021920 AAA
TAFPRC
TAF AMD
KPRC 021920Z 0219/0318 27007KT P6SM VCTS SCT060CB SCT120
      TEMPO 0221/0223 VRB10G25KT 6SM -TSRA BKN060CB
     FM030000 VRB06KT P6SM SCT080 BKN150
     FM030400 20005KT P6SM FEW120=

USA.gov is the U.S. government's official web portal to all federal, state and local government web resources and services.